Αρχική σελίδα
METAR-TAF:

METAR-TAF

Αεροδρόμια :

Θούλη, Γροιλανδία

γεωγραφικό πλάτος: 76-32N, γεωγραφικό μήκος: 068-42W, υψόμετρο: 77 μ

Παρών καιρός

Η αναφορά έγινε 25 λεπτά πριν, στις 07:56 UTC
Ήπιος άνεμος
Θερμοκρασία -1°C
Υγρασία 100%
Πίεση 998 hPa
Ορατότητα 10 χλμ και άνω
Νεφοσκεπής σε ύψος 200 πόδια

METAR: BGTL 250756Z AUTO 00000KT 9999 OVC002 M01/M01 A2946 RMK AO2 SLP961 T10101010 FZRANO TSNO $

Χρόνος: 05:21 (08:21 UTC)


TAF: λείπει

Μετεωρολογικές αναφορές και προγνώσεις για περισσότερα από 4000 αεροδρόμια (δελτία METAR και TAF).

Οι διαθέσιμοι σταθμοί απεικονίζονται στο χάρτη με κίτρινες και κόκκινες κουκκίδες.

Μετακινήστε το ποντίκι πάνω από τις κουκκίδες για να δείτε το όνομα του σταθμού.

Στη συνέχεια, κάντε κλικ για να δείτε τις μετεωρολογικές αναφορές και τις προγνώσεις καιρού.

Για να αλλάξετε το χάρτη: κάντε κλικ στα πράσινα κουμπιά με τον μαύρο σταυρό για να ζουμάρετε, στο πράσινο κουμπί με την παύλα για να αφαιρέσετε το ζουμ ή στα πράσινα βέλη για να αντιπαραβάλλετε χάρτες.


METAR-TAF: